Sardinia Vera — IBWV — position and weather

sailwx.info

Track history (hours):
 
Tides and Currents Weather Stations Pressure Air Temp Water Temp Dewpoint Dewpoint Depression Visibility Wind Speed Wind Dir Waves Ship Positions

Sardinia Vera

Last reported at 2017-Jul-23 18:42 UTC. Time now 2017-Jul-24 04:50 UTC.
Position N 42°54' E 010°34'.

; draft 5.3 m.

Type: Ship. MMSI: 247392000.

Date/timePositionNaut miles runAvg speedWind from/ knotsBaromVisibWave heightAir tempDewpointWater temp
2017-Jul-23 18:42N 42°54' E 010°34'416.6
2017-Jul-23 18:29N 42°51' E 010°34'1316.8
2017-Jul-23 17:43N 42°38' E 010°32'417.2
2017-Jul-23 17:28N 42°34' E 010°31'1617.3
2017-Jul-23 16:31N 42°18' E 010°27'017.4
2017-Jul-23 16:30N 42°17' E 010°27'1917.1
2017-Jul-23 15:24N 42°01' E 010°16'716.9
2017-Jul-23 15:00N 41°55' E 010°12'816.7
2017-Jul-23 14:30N 41°46' E 010°09'816.7
2017-Jul-23 14:00N 41°39' E 010°03'79 4.2
2017-Jul-22 19:04N 42°54' E 010°34'316.2
2017-Jul-22 18:52N 42°51' E 010°34'616.6
2017-Jul-22 18:30N 42°45' E 010°33'58 1.8
2017-Jul-21 10:47N 43°12' E 009°23'515.7
2017-Jul-21 10:28N 43°16' E 009°20'715.8
2017-Jul-21 10:00N 43°22' E 009°15'916.0
2017-Jul-21 09:28N 43°30' E 009°08'1116.0
2017-Jul-21 08:46N 43°39' E 008°60'415.9
2017-Jul-21 08:30N 43°43' E 008°57'816.2
2017-Jul-21 08:00N 43°50' E 008°51'816.5
2017-Jul-21 07:30N 43°57' E 008°45'2116.5
2017-Jul-21 06:13N 44°15' E 008°30'211.2
2017-Jul-21 06:00N 44°16' E 008°27'0 0.6
2017-Jul-21 05:30N 44°16' E 008°27'0 0.0
2017-Jul-21 05:00N 44°16' E 008°27'0 0.0
2017-Jul-21 04:30N 44°16' E 008°27'0 0.0
2017-Jul-21 04:00N 44°16' E 008°27'5 9.0
2017-Jul-21 03:30N 44°13' E 008°32'916.0
2017-Jul-21 02:55N 44°04' E 008°35'2915.9
2017-Jul-21 01:07N 43°37' E 008°49'316.4
2017-Jul-21 00:58N 43°37' E 008°52'1516.2
2017-Jul-21 00:04N 43°28' E 009°08'115.8
2017-Jul-21 00:00N 43°27' E 009°09'816.1
2017-Jul-20 23:30N 43°20' E 009°15'816.3
2017-Jul-20 23:01N 43°13' E 009°20'816.5
2017-Jul-20 22:30N 43°06' E 009°27'816.3
2017-Jul-20 22:00N 42°60' E 009°33'816.8
2017-Jul-20 21:30N 42°52' E 009°35'714.7
2017-Jul-20 21:00N 42°45' E 009°32'17 3.3
2017-Jul-20 15:57N 42°54' E 009°51'715.9
2017-Jul-20 15:30N 42°60' E 009°57'816.2
2017-Jul-20 15:00N 43°07' E 010°01'1616.3
2017-Jul-20 14:00N 43°22' E 010°10'816.1
2017-Jul-20 13:30N 43°30' E 010°12'510.4
2017-Jul-20 13:00N 43°33' E 010°18'0 0.0
2017-Jul-20 12:30N 43°33' E 010°18'0 0.0
2017-Jul-20 12:00N 43°33' E 010°18'0 0.0
2017-Jul-20 11:30N 43°33' E 010°18'0 0.0
2017-Jul-20 11:00N 43°33' E 010°18'1 1.8
2017-Jul-20 10:30N 43°32' E 010°17'5 9.5
2017-Jul-20 10:01N 43°29' E 010°13'917.3
2017-Jul-20 09:31N 43°21' E 010°08'917.0
2017-Jul-20 09:01N 43°13' E 010°04'917.0
2017-Jul-20 08:30N 43°05' E 010°00'916.5
2017-Jul-20 07:57N 42°57' E 009°54'917.0
2017-Jul-20 07:25N 42°52' E 009°44'716.9
2017-Jul-20 07:01N 42°48' E 009°37'816.8
2017-Jul-20 06:30N 42°42' E 009°28'1 0.1
2017-Jul-19 23:52N 42°42' E 009°27'0 0.0
2017-Jul-19 23:29N 42°42' E 009°27'5 1.1
2017-Jul-19 18:26N 42°45' E 009°34'716.6
2017-Jul-19 18:00N 42°49' E 009°41'1116.9
2017-Jul-19 17:22N 42°56' E 009°52'616.7
2017-Jul-19 17:01N 43°00' E 009°58'713.1
2017-Jul-19 16:30N 43°07' E 010°01'713.6
2017-Jul-19 16:00N 43°13' E 010°03'816.6
2017-Jul-19 15:30N 43°21' E 010°08'816.6
2017-Jul-19 15:00N 43°29' E 010°11'611.7
2017-Jul-19 14:30N 43°33' E 010°17'1 1.5
2017-Jul-19 14:00N 43°33' E 010°18'0 0.0
2017-Jul-19 13:30N 43°33' E 010°18'0 0.1
2017-Jul-19 13:00N 43°33' E 010°18'3 5.5
2017-Jul-19 12:31N 43°31' E 010°15'816.0
2017-Jul-19 12:00N 43°24' E 010°11'917.1
2017-Jul-19 11:28N 43°16' E 010°05'817.0
2017-Jul-19 10:58N 43°08' E 010°01'816.9
2017-Jul-19 10:30N 43°00' E 009°58'1615.2
2017-Jul-19 09:26N 42°50' E 009°41'511.4
2017-Jul-19 09:00N 42°47' E 009°35'6 1.2
2017-Jul-19 03:52N 42°43' E 009°30'615.3
2017-Jul-19 03:30N 42°46' E 009°36'816.0
2017-Jul-19 03:00N 42°51' E 009°45'916.2
2017-Jul-19 02:29N 42°56' E 009°54'715.4
2017-Jul-19 02:00N 43°02' E 009°60'815.9
2017-Jul-19 01:30N 43°10' E 010°00'714.2
2017-Jul-19 00:59N 43°16' E 009°54'4 6.3
2017-Jul-19 00:21N 43°20' E 009°56'615.4
2017-Jul-18 23:59N 43°18' E 010°03'6 9.2
2017-Jul-18 23:19N 43°22' E 010°10'515.4
2017-Jul-18 23:00N 43°27' E 010°10'612.4
2017-Jul-18 22:30N 43°32' E 010°15'2 4.6
2017-Jul-18 22:00N 43°33' E 010°18'0 0.0
2017-Jul-18 21:30N 43°33' E 010°18'0 0.0
2017-Jul-18 21:00N 43°33' E 010°18'0 0.0
2017-Jul-18 20:30N 43°33' E 010°18'0 0.0
2017-Jul-18 20:00N 43°33' E 010°18'0 0.0
2017-Jul-18 19:30N 43°33' E 010°18'0 0.0
2017-Jul-18 19:00N 43°33' E 010°18'0 0.0
2017-Jul-18 18:30N 43°33' E 010°18'0 0.0
2017-Jul-18 18:00N 43°33' E 010°18'0 0.0
2017-Jul-18 17:30N 43°33' E 010°18'0 0.5
2017-Jul-18 17:00N 43°33' E 010°18'4 7.9
2017-Jul-18 16:31N 43°30' E 010°14'816.5
2017-Jul-18 16:01N 43°23' E 010°10'916.9
2017-Jul-18 15:30N 43°15' E 010°06'817.0
2017-Jul-18 15:01N 43°07' E 010°01'1 0.2
2017-Jul-18 08:06N 43°08' E 009°60'317.0
2017-Jul-18 07:56N 43°11' E 010°01'717.0
2017-Jul-18 07:30N 43°17' E 010°05'816.8
2017-Jul-18 07:00N 43°25' E 010°10'815.4
2017-Jul-18 06:31N 43°32' E 010°15'3 5.4
2017-Jul-18 06:00N 43°33' E 010°18'0 0.0
2017-Jul-18 05:31N 43°33' E 010°18'0 0.0
2017-Jul-18 05:01N 43°33' E 010°18'0 0.0
2017-Jul-18 04:31N 43°33' E 010°18'0 0.0
2017-Jul-18 04:01N 43°33' E 010°18'0 0.0
2017-Jul-18 03:30N 43°33' E 010°18'0 0.0
2017-Jul-18 03:01N 43°33' E 010°18'0 0.0
2017-Jul-18 02:31N 43°33' E 010°18'0 0.0
2017-Jul-18 02:01N 43°33' E 010°18'0 0.0
2017-Jul-18 01:30N 43°33' E 010°18'0 0.0
2017-Jul-18 01:00N 43°33' E 010°18'0 0.0
2017-Jul-18 00:31N 43°33' E 010°18'0 0.0
2017-Jul-18 00:01N 43°33' E 010°18'0 0.0
2017-Jul-17 23:31N 43°33' E 010°18'0 0.0
2017-Jul-17 23:01N 43°33' E 010°18'0 0.0
2017-Jul-17 22:31N 43°33' E 010°18'0 0.0
2017-Jul-17 22:00N 43°33' E 010°18'0 0.0
2017-Jul-17 21:31N 43°33' E 010°18'0 0.0
2017-Jul-17 21:01N 43°33' E 010°18'0 0.0
2017-Jul-17 20:31N 43°33' E 010°18'1 2.0
2017-Jul-17 20:01N 43°32' E 010°17'713.3
2017-Jul-17 19:30N 43°27' E 010°12'816.8
2017-Jul-17 19:00N 43°19' E 010°09'816.6
2017-Jul-17 18:30N 43°11' E 010°06'916.9
2017-Jul-17 18:00N 43°03' E 010°03'817.0
2017-Jul-17 17:30N 42°54' E 010°01'917.0
2017-Jul-17 16:58N 42°45' E 009°59'816.6
2017-Jul-17 16:30N 42°38' E 009°57'25 1.1
2017-Jul-16 18:17N 42°39' E 010°31'12 0.5
2017-Jul-15 18:55N 42°51' E 010°34'511.3
2017-Jul-15 18:30N 42°47' E 010°31'3 6.5
2017-Jul-15 18:00N 42°44' E 010°32'11 0.5
2017-Jul-14 19:09N 42°54' E 010°34'315.2
2017-Jul-14 18:59N 42°52' E 010°34'916.6
2017-Jul-14 18:27N 42°43' E 010°31'1815.7
2017-Jul-14 17:18N 42°41' E 010°07'817.5
2017-Jul-14 16:50N 42°41' E 009°55'617.5
2017-Jul-14 16:29N 42°41' E 009°47'12 4.7
2017-Jul-14 13:50N 42°44' E 009°31'2915.3
2017-Jul-14 11:54N 43°12' E 009°22'1816.8
2017-Jul-14 10:51N 43°25' E 009°04'816.7
2017-Jul-14 10:22N 43°30' E 008°57'616.6
2017-Jul-14 10:00N 43°35' E 008°51'816.5
2017-Jul-14 09:30N 43°41' E 008°44'816.3
2017-Jul-14 09:00N 43°48' E 008°37'2716.4
2017-Jul-14 07:20N 44°15' E 008°30'3 7.6
2017-Jul-14 07:00N 44°16' E 008°27'0 0.0
2017-Jul-14 06:30N 44°16' E 008°27'0 0.0
2017-Jul-14 06:00N 44°16' E 008°27'0 0.0
2017-Jul-14 05:30N 44°16' E 008°27'0 0.9
2017-Jul-14 05:00N 44°16' E 008°27'611.3
2017-Jul-14 04:30N 44°12' E 008°33'1014.1
2017-Jul-14 03:47N 44°03' E 008°39'414.3
2017-Jul-14 03:30N 43°59' E 008°42'814.4
2017-Jul-14 02:58N 43°53' E 008°47'714.4
2017-Jul-14 02:29N 43°46' E 008°51'713.9
2017-Jul-14 02:00N 43°40' E 008°53'714.7
2017-Jul-14 01:30N 43°33' E 008°51'714.6
2017-Jul-14 01:00N 43°26' E 008°48'13 6.3
2017-Jul-13 22:52N 43°28' E 009°06'513.6
2017-Jul-13 22:29N 43°31' E 009°12'612.2
2017-Jul-13 21:59N 43°27' E 009°18'3713.7
2017-Jul-13 19:15N 42°53' E 009°41'313.3
2017-Jul-13 19:00N 42°50' E 009°41'  
Track history (hours):
 
Tides and Currents Weather Stations Pressure Air Temp Water Temp Dewpoint Dewpoint Depression Visibility Wind Speed Wind Dir Waves Ship Positions

Sardinia Vera

Last reported at 2017-Jul-23 18:42 UTC. Time now 2017-Jul-24 04:50 UTC.
Position N 42°54' E 010°34'.

; draft 5.3 m.

Type: Ship. MMSI: 247392000.

Date/timePositionNaut miles runAvg speedWind from/ knotsBaromVisibWave heightAir tempDewpointWater temp
2017-Jul-23 18:42N 42°54' E 010°34'416.6
2017-Jul-23 18:29N 42°51' E 010°34'1316.8
2017-Jul-23 17:43N 42°38' E 010°32'417.2
2017-Jul-23 17:28N 42°34' E 010°31'1617.3
2017-Jul-23 16:31N 42°18' E 010°27'017.4
2017-Jul-23 16:30N 42°17' E 010°27'1917.1
2017-Jul-23 15:24N 42°01' E 010°16'716.9
2017-Jul-23 15:00N 41°55' E 010°12'816.7
2017-Jul-23 14:30N 41°46' E 010°09'816.7
2017-Jul-23 14:00N 41°39' E 010°03'79 4.2
2017-Jul-22 19:04N 42°54' E 010°34'316.2
2017-Jul-22 18:52N 42°51' E 010°34'616.6
2017-Jul-22 18:30N 42°45' E 010°33'58 1.8
2017-Jul-21 10:47N 43°12' E 009°23'515.7
2017-Jul-21 10:28N 43°16' E 009°20'715.8
2017-Jul-21 10:00N 43°22' E 009°15'916.0
2017-Jul-21 09:28N 43°30' E 009°08'1116.0
2017-Jul-21 08:46N 43°39' E 008°60'415.9
2017-Jul-21 08:30N 43°43' E 008°57'816.2
2017-Jul-21 08:00N 43°50' E 008°51'816.5
2017-Jul-21 07:30N 43°57' E 008°45'2116.5
2017-Jul-21 06:13N 44°15' E 008°30'211.2
2017-Jul-21 06:00N 44°16' E 008°27'0 0.6
2017-Jul-21 05:30N 44°16' E 008°27'0 0.0
2017-Jul-21 05:00N 44°16' E 008°27'0 0.0
2017-Jul-21 04:30N 44°16' E 008°27'0 0.0
2017-Jul-21 04:00N 44°16' E 008°27'5 9.0
2017-Jul-21 03:30N 44°13' E 008°32'916.0
2017-Jul-21 02:55N 44°04' E 008°35'2915.9
2017-Jul-21 01:07N 43°37' E 008°49'316.4
2017-Jul-21 00:58N 43°37' E 008°52'1516.2
2017-Jul-21 00:04N 43°28' E 009°08'115.8
2017-Jul-21 00:00N 43°27' E 009°09'816.1
2017-Jul-20 23:30N 43°20' E 009°15'816.3
2017-Jul-20 23:01N 43°13' E 009°20'816.5
2017-Jul-20 22:30N 43°06' E 009°27'816.3
2017-Jul-20 22:00N 42°60' E 009°33'816.8
2017-Jul-20 21:30N 42°52' E 009°35'714.7
2017-Jul-20 21:00N 42°45' E 009°32'17 3.3
2017-Jul-20 15:57N 42°54' E 009°51'715.9
2017-Jul-20 15:30N 42°60' E 009°57'816.2
2017-Jul-20 15:00N 43°07' E 010°01'1616.3
2017-Jul-20 14:00N 43°22' E 010°10'816.1
2017-Jul-20 13:30N 43°30' E 010°12'510.4
2017-Jul-20 13:00N 43°33' E 010°18'0 0.0
2017-Jul-20 12:30N 43°33' E 010°18'0 0.0
2017-Jul-20 12:00N 43°33' E 010°18'0 0.0
2017-Jul-20 11:30N 43°33' E 010°18'0 0.0
2017-Jul-20 11:00N 43°33' E 010°18'1 1.8
2017-Jul-20 10:30N 43°32' E 010°17'5 9.5
2017-Jul-20 10:01N 43°29' E 010°13'917.3
2017-Jul-20 09:31N 43°21' E 010°08'917.0
2017-Jul-20 09:01N 43°13' E 010°04'917.0
2017-Jul-20 08:30N 43°05' E 010°00'916.5
2017-Jul-20 07:57N 42°57' E 009°54'917.0
2017-Jul-20 07:25N 42°52' E 009°44'716.9
2017-Jul-20 07:01N 42°48' E 009°37'816.8
2017-Jul-20 06:30N 42°42' E 009°28'1 0.1
2017-Jul-19 23:52N 42°42' E 009°27'0 0.0
2017-Jul-19 23:29N 42°42' E 009°27'5 1.1
2017-Jul-19 18:26N 42°45' E 009°34'716.6
2017-Jul-19 18:00N 42°49' E 009°41'1116.9
2017-Jul-19 17:22N 42°56' E 009°52'616.7
2017-Jul-19 17:01N 43°00' E 009°58'713.1
2017-Jul-19 16:30N 43°07' E 010°01'713.6
2017-Jul-19 16:00N 43°13' E 010°03'816.6
2017-Jul-19 15:30N 43°21' E 010°08'816.6
2017-Jul-19 15:00N 43°29' E 010°11'611.7
2017-Jul-19 14:30N 43°33' E 010°17'1 1.5
2017-Jul-19 14:00N 43°33' E 010°18'0 0.0
2017-Jul-19 13:30N 43°33' E 010°18'0 0.1
2017-Jul-19 13:00N 43°33' E 010°18'3 5.5
2017-Jul-19 12:31N 43°31' E 010°15'816.0
2017-Jul-19 12:00N 43°24' E 010°11'917.1
2017-Jul-19 11:28N 43°16' E 010°05'817.0
2017-Jul-19 10:58N 43°08' E 010°01'816.9
2017-Jul-19 10:30N 43°00' E 009°58'1615.2
2017-Jul-19 09:26N 42°50' E 009°41'511.4
2017-Jul-19 09:00N 42°47' E 009°35'6 1.2
2017-Jul-19 03:52N 42°43' E 009°30'615.3
2017-Jul-19 03:30N 42°46' E 009°36'816.0
2017-Jul-19 03:00N 42°51' E 009°45'916.2
2017-Jul-19 02:29N 42°56' E 009°54'715.4
2017-Jul-19 02:00N 43°02' E 009°60'815.9
2017-Jul-19 01:30N 43°10' E 010°00'714.2
2017-Jul-19 00:59N 43°16' E 009°54'4 6.3
2017-Jul-19 00:21N 43°20' E 009°56'615.4
2017-Jul-18 23:59N 43°18' E 010°03'6 9.2
2017-Jul-18 23:19N 43°22' E 010°10'515.4
2017-Jul-18 23:00N 43°27' E 010°10'612.4
2017-Jul-18 22:30N 43°32' E 010°15'2 4.6
2017-Jul-18 22:00N 43°33' E 010°18'0 0.0
2017-Jul-18 21:30N 43°33' E 010°18'0 0.0
2017-Jul-18 21:00N 43°33' E 010°18'0 0.0
2017-Jul-18 20:30N 43°33' E 010°18'0 0.0
2017-Jul-18 20:00N 43°33' E 010°18'0 0.0
2017-Jul-18 19:30N 43°33' E 010°18'0 0.0
2017-Jul-18 19:00N 43°33' E 010°18'0 0.0
2017-Jul-18 18:30N 43°33' E 010°18'0 0.0
2017-Jul-18 18:00N 43°33' E 010°18'0 0.0
2017-Jul-18 17:30N 43°33' E 010°18'0 0.5
2017-Jul-18 17:00N 43°33' E 010°18'4 7.9
2017-Jul-18 16:31N 43°30' E 010°14'816.5
2017-Jul-18 16:01N 43°23' E 010°10'916.9
2017-Jul-18 15:30N 43°15' E 010°06'817.0
2017-Jul-18 15:01N 43°07' E 010°01'1 0.2
2017-Jul-18 08:06N 43°08' E 009°60'317.0
2017-Jul-18 07:56N 43°11' E 010°01'717.0
2017-Jul-18 07:30N 43°17' E 010°05'816.8
2017-Jul-18 07:00N 43°25' E 010°10'815.4
2017-Jul-18 06:31N 43°32' E 010°15'3 5.4
2017-Jul-18 06:00N 43°33' E 010°18'0 0.0
2017-Jul-18 05:31N 43°33' E 010°18'0 0.0
2017-Jul-18 05:01N 43°33' E 010°18'0 0.0
2017-Jul-18 04:31N 43°33' E 010°18'0 0.0
2017-Jul-18 04:01N 43°33' E 010°18'0 0.0
2017-Jul-18 03:30N 43°33' E 010°18'0 0.0
2017-Jul-18 03:01N 43°33' E 010°18'0 0.0
2017-Jul-18 02:31N 43°33' E 010°18'0 0.0
2017-Jul-18 02:01N 43°33' E 010°18'0 0.0
2017-Jul-18 01:30N 43°33' E 010°18'0 0.0
2017-Jul-18 01:00N 43°33' E 010°18'0 0.0
2017-Jul-18 00:31N 43°33' E 010°18'0 0.0
2017-Jul-18 00:01N 43°33' E 010°18'0 0.0
2017-Jul-17 23:31N 43°33' E 010°18'0 0.0
2017-Jul-17 23:01N 43°33' E 010°18'0 0.0
2017-Jul-17 22:31N 43°33' E 010°18'0 0.0
2017-Jul-17 22:00N 43°33' E 010°18'0 0.0
2017-Jul-17 21:31N 43°33' E 010°18'0 0.0
2017-Jul-17 21:01N 43°33' E 010°18'0 0.0
2017-Jul-17 20:31N 43°33' E 010°18'1 2.0
2017-Jul-17 20:01N 43°32' E 010°17'713.3
2017-Jul-17 19:30N 43°27' E 010°12'816.8
2017-Jul-17 19:00N 43°19' E 010°09'816.6
2017-Jul-17 18:30N 43°11' E 010°06'916.9
2017-Jul-17 18:00N 43°03' E 010°03'817.0
2017-Jul-17 17:30N 42°54' E 010°01'917.0
2017-Jul-17 16:58N 42°45' E 009°59'816.6
2017-Jul-17 16:30N 42°38' E 009°57'25 1.1
2017-Jul-16 18:17N 42°39' E 010°31'12 0.5
2017-Jul-15 18:55N 42°51' E 010°34'511.3
2017-Jul-15 18:30N 42°47' E 010°31'3 6.5
2017-Jul-15 18:00N 42°44' E 010°32'11 0.5
2017-Jul-14 19:09N 42°54' E 010°34'315.2
2017-Jul-14 18:59N 42°52' E 010°34'916.6
2017-Jul-14 18:27N 42°43' E 010°31'1815.7
2017-Jul-14 17:18N 42°41' E 010°07'817.5
2017-Jul-14 16:50N 42°41' E 009°55'617.5
2017-Jul-14 16:29N 42°41' E 009°47'12 4.7
2017-Jul-14 13:50N 42°44' E 009°31'2915.3
2017-Jul-14 11:54N 43°12' E 009°22'1816.8
2017-Jul-14 10:51N 43°25' E 009°04'816.7
2017-Jul-14 10:22N 43°30' E 008°57'616.6
2017-Jul-14 10:00N 43°35' E 008°51'816.5
2017-Jul-14 09:30N 43°41' E 008°44'816.3
2017-Jul-14 09:00N 43°48' E 008°37'2716.4
2017-Jul-14 07:20N 44°15' E 008°30'3 7.6
2017-Jul-14 07:00N 44°16' E 008°27'0 0.0
2017-Jul-14 06:30N 44°16' E 008°27'0 0.0
2017-Jul-14 06:00N 44°16' E 008°27'0 0.0
2017-Jul-14 05:30N 44°16' E 008°27'0 0.9
2017-Jul-14 05:00N 44°16' E 008°27'611.3
2017-Jul-14 04:30N 44°12' E 008°33'1014.1
2017-Jul-14 03:47N 44°03' E 008°39'414.3
2017-Jul-14 03:30N 43°59' E 008°42'814.4
2017-Jul-14 02:58N 43°53' E 008°47'714.4
2017-Jul-14 02:29N 43°46' E 008°51'713.9
2017-Jul-14 02:00N 43°40' E 008°53'714.7
2017-Jul-14 01:30N 43°33' E 008°51'714.6
2017-Jul-14 01:00N 43°26' E 008°48'13 6.3
2017-Jul-13 22:52N 43°28' E 009°06'513.6
2017-Jul-13 22:29N 43°31' E 009°12'612.2
2017-Jul-13 21:59N 43°27' E 009°18'3713.7
2017-Jul-13 19:15N 42°53' E 009°41'313.3
2017-Jul-13 19:00N 42°50' E 009°41'  

Dump ship's entire track history